This is the latest recevied weather packets stored in our database for station/object IV3CGM-13. If no packets are shown the sender has not sent any weather packets the latest 10 day(s).
| Time | Temp. | Humidity | Pressure | Rain* | Wind** | Luminosity | Snow |
|---|---|---|---|---|---|---|---|
| 1777383198 | 18.33° C | 63% | 1015.3 hPa | 0 mm | - | 135 W/m² | - |
| 1777382511 | 18.89° C | 59% | 1015.5 hPa | 0 mm | - | 136 W/m² | - |
| 1777381824 | 20° C | 58% | 1015.4 hPa | 0 mm | - | 124 W/m² | - |
| 1777381136 | 21.11° C | 45% | 1015.4 hPa | 0 mm | - | 189 W/m² | - |
| 1777380399 | 21.67° C | 38% | 1015.5 hPa | 0 mm | - | 272 W/m² | - |
| 1777379698 | 21.67° C | 39% | 1015.4 hPa | 0 mm | - | 369 W/m² | - |
| 1777379011 | 21.11° C | 39% | 1015.5 hPa | 0 mm | - | 474 W/m² | - |
| 1777378323 | 21.11° C | 40% | 1015.4 hPa | 0 mm | - | 356 W/m² | - |
| 1777377638 | 21.11° C | 39% | 1015.5 hPa | 0 mm | - | 321 W/m² | - |
| 1777376900 | 21.67° C | 39% | 1015.5 hPa | 0 mm | - | 513 W/m² | - |
| 1777376198 | 21.11° C | 38% | 1015.5 hPa | 0 mm | - | 623 W/m² | - |
| 1777375511 | 21.11° C | 40% | 1015.6 hPa | 0 mm | - | 452 W/m² | - |
| 1777374824 | 21.11° C | 40% | 1015.8 hPa | 0 mm | - | 661 W/m² | - |
| 1777374136 | 21.11° C | 42% | 1015.8 hPa | 0 mm | - | 527 W/m² | - |
| 1777373399 | 21.11° C | 41% | 1015.9 hPa | 0 mm | - | 409 W/m² | - |
| 1777372699 | 20.56° C | 40% | 1016 hPa | 0 mm | - | 760 W/m² | - |
| 1777372011 | 21.67° C | 41% | 1016 hPa | 0 mm | - | 731 W/m² | - |
| 1777371324 | 20.56° C | 45% | 1016.2 hPa | 0 mm | - | 797 W/m² | - |
| 1777370636 | 20.56° C | 44% | 1016.3 hPa | 0 mm | - | 485 W/m² | - |
| 1777369900 | 20.56° C | 43% | 1016.3 hPa | 0 mm | - | 494 W/m² | - |
| 1777369199 | 20.56° C | 43% | 1016.4 hPa | 0 mm | - | 587 W/m² | - |
| 1777368511 | 20° C | 45% | 1016.4 hPa | 0 mm | - | 397 W/m² | - |
| 1777367824 | 20° C | 49% | 1016.4 hPa | 0 mm | - | 679 W/m² | - |
| 1777367136 | 19.44° C | 51% | 1016.3 hPa | 0 mm | - | 669 W/m² | - |
| 1777366400 | 20.56° C | 49% | 1016.4 hPa | 0 mm | - | 624 W/m² | - |
* Rain latest hour (hover to see other rain measurements)
** Current wind speed in m/s (hover to see current wind gust speed)